KHWO/HWO METAR and TAF weather

Enter ICAO airport designator
Station Type Date Time Source
KHWO METAR 2022/10/01 07:53 UTC NOAA

KHWO 010753Z AUTO 35004KT 10SM CLR 23/20 A2979 RMK AO2 SLP088 T02330200


Station Type Date Time Source
KHWO Decoded METAR 2022/10/01 07:53 UTC NOAA

HOLLYWOOD NORTH PERRY AIRPORT , FL, United States (KHWO) 26-00N 080-14W 2M
Oct 01, 2022 - 03:53 AM EDT / 2022.10.01 0753 UTC
Wind: from the N (350 degrees) at 5 MPH (4 KT):0
Visibility: 10 mile(s):0
Sky conditions: clear
Temperature: 73.9 F (23.3 C)
Dew Point: 68.0 F (20.0 C)
Relative Humidity: 81%
Pressure (altimeter): 29.79 in. Hg (1008 hPa)
ob: KHWO 010753Z AUTO 35004KT 10SM CLR 23/20 A2979 RMK AO2 SLP088 T02330200
cycle: 8

Station Type Date Time Source
KHWO TAF 2020/02/03 18:20 UTC NOAA

TAF KHWO 031720Z 0318/0418 12005KT P6SM SKC
FM040000 VRB03KT P6SM SKC
FM041500 14010KT P6SM FEW030

Example: see airport list